Time;durP1;ratioP1;P1;durP2;ratioP2;P2;SDS_P1;SDS_P2;PMS_P1;PMS_P2;Temp;Humidity;BMP_temperature;BMP_pressure;BME280_temperature;BME280_humidity;BME280_pressure;Samples;Min_cycle;Max_cycle;Signal;HPM_P1;HPM_P2
2020/12/21 00:00:34;;;;;;;8.15;2.38;;;24.80;99.90;;;;;;5076186;28;20082;-59
2020/12/21 00:03:02;;;;;;;4.72;1.27;;;24.70;99.90;;;;;;5076475;28;20024;-59
2020/12/21 00:05:30;;;;;;;9.57;1.42;;;24.60;99.90;;;;;;5076184;28;20078;-59
2020/12/21 00:08:10;;;;;;;7.47;1.38;;;24.50;99.90;;;;;;5076153;28;20066;-57
2020/12/21 00:10:38;;;;;;;10.20;1.77;;;24.50;99.90;;;;;;5076046;28;20028;-56
2020/12/21 00:13:06;;;;;;;6.10;1.20;;;24.40;99.90;;;;;;5057722;28;20477;-59
2020/12/21 00:15:34;;;;;;;7.22;1.83;;;24.40;99.90;;;;;;5076486;28;20396;-58
2020/12/21 00:18:01;;;;;;;4.82;1.25;;;24.40;99.90;;;;;;5076017;28;20056;-62
2020/12/21 00:20:29;;;;;;;9.35;1.38;;;24.40;99.90;;;;;;5076024;28;20112;-61
2020/12/21 00:22:57;;;;;;;6.20;1.67;;;24.40;99.90;;;;;;5075859;28;20024;-57
2020/12/21 00:25:25;;;;;;;7.95;1.25;;;24.40;99.90;;;;;;5075762;28;20103;-58
2020/12/21 00:27:59;;;;;;;5.22;1.42;;;24.30;99.90;;;;;;5075903;28;20033;-60
2020/12/21 00:30:27;;;;;;;7.22;1.23;;;24.40;99.90;;;;;;5075755;28;20032;-61
2020/12/21 00:32:54;;;;;;;6.78;1.52;;;24.40;99.90;;;;;;5075727;28;20107;-57
2020/12/21 00:35:22;;;;;;;9.23;1.40;;;24.50;99.90;;;;;;5075776;28;20036;-57
2020/12/21 00:37:50;;;;;;;6.65;1.27;;;24.50;99.90;;;;;;5075855;28;20028;-60
2020/12/21 00:40:18;;;;;;;4.85;0.95;;;24.40;99.90;;;;;;5075446;28;20056;-58
2020/12/21 00:42:46;;;;;;;6.45;1.25;;;24.40;99.90;;;;;;5075535;28;20444;-60
2020/12/21 00:45:14;;;;;;;7.05;1.23;;;24.40;99.90;;;;;;5075820;28;20119;-60
2020/12/21 00:47:44;;;;;;;6.68;1.55;;;24.50;99.90;;;;;;5075603;28;20035;-61
2020/12/21 00:50:11;;;;;;;7.70;1.33;;;24.60;99.90;;;;;;5075680;28;20116;-61
2020/12/21 00:52:39;;;;;;;6.03;1.20;;;24.50;99.90;;;;;;5075691;28;20385;-61
2020/12/21 00:55:07;;;;;;;8.65;1.40;;;24.50;99.90;;;;;;5057191;28;20029;-58
2020/12/21 00:57:36;;;;;;;5.85;1.17;;;24.40;99.90;;;;;;5075572;28;20028;-61
2020/12/21 01:00:06;;;;;;;7.10;1.40;;;24.40;99.90;;;;;;5075161;28;20357;-59
2020/12/21 01:02:35;;;;;;;8.10;1.63;;;24.50;99.90;;;;;;5075117;28;20023;-59
2020/12/21 01:05:03;;;;;;;3.63;0.88;;;24.50;99.90;;;;;;5074504;28;20577;-60
2020/12/21 01:07:30;;;;;;;5.72;1.20;;;24.50;99.90;;;;;;5075024;28;20020;-59
2020/12/21 01:09:58;;;;;;;8.25;1.55;;;24.50;99.90;;;;;;5075043;28;20024;-60
2020/12/21 01:12:29;;;;;;;4.80;1.25;;;24.50;99.90;;;;;;5075114;28;20020;-60
2020/12/21 01:14:56;;;;;;;4.50;1.05;;;24.50;99.90;;;;;;5075023;28;20037;-59
2020/12/21 01:17:24;;;;;;;4.82;1.00;;;24.50;99.90;;;;;;5074751;28;20040;-59
2020/12/21 01:19:52;;;;;;;4.82;1.30;;;24.40;99.90;;;;;;5074590;28;20040;-58
2020/12/21 01:22:20;;;;;;;7.55;1.02;;;24.30;99.90;;;;;;5075082;28;20051;-59
2020/12/21 01:24:47;;;;;;;8.93;1.75;;;24.20;99.90;;;;;;5074680;28;20048;-59
2020/12/21 01:27:15;;;;;;;7.63;1.40;;;24.20;99.90;;;;;;5074700;28;20016;-59
2020/12/21 01:29:43;;;;;;;8.38;2.45;;;24.20;99.90;;;;;;5074691;28;20032;-59
2020/12/21 01:32:13;;;;;;;5.18;1.10;;;24.10;99.90;;;;;;5074552;28;20021;-59
2020/12/21 01:34:41;;;;;;;8.30;0.95;;;24.10;99.90;;;;;;5074818;28;20492;-58
2020/12/21 01:37:08;;;;;;;5.50;1.33;;;24.10;99.90;;;;;;5074589;28;20043;-58
2020/12/21 01:39:36;;;;;;;5.32;1.40;;;24.10;99.90;;;;;;5074378;28;20103;-58
2020/12/21 01:42:04;;;;;;;5.50;1.40;;;24.00;99.90;;;;;;5074530;28;20525;-57
2020/12/21 01:44:32;;;;;;;4.50;1.08;;;23.90;99.90;;;;;;5074861;28;20024;-61
2020/12/21 01:47:01;;;;;;;3.40;0.90;;;23.90;99.90;;;;;;5074535;28;20116;-57
2020/12/21 01:49:29;;;;;;;6.03;1.17;;;23.80;99.90;;;;;;5074258;28;20416;-60
2020/12/21 01:51:57;;;;;;;5.00;1.20;;;23.80;99.90;;;;;;5074492;28;20040;-60
2020/12/21 01:54:25;;;;;;;4.57;0.90;;;23.80;99.90;;;;;;5074338;28;20033;-60
2020/12/21 01:56:54;;;;;;;4.63;1.48;;;23.80;99.90;;;;;;5073998;28;20025;-59
2020/12/21 01:59:23;;;;;;;6.40;1.48;;;23.90;99.90;;;;;;5074240;28;20460;-59
2020/12/21 02:01:54;;;;;;;6.80;1.42;;;23.80;99.90;;;;;;5073973;28;20377;-58
2020/12/21 02:04:22;;;;;;;6.35;1.17;;;23.80;99.90;;;;;;5073949;28;20036;-58
2020/12/21 02:06:49;;;;;;;5.75;1.40;;;23.70;99.90;;;;;;5074137;28;20036;-59
2020/12/21 02:09:17;;;;;;;6.40;1.27;;;23.70;99.90;;;;;;5074029;28;20023;-59
2020/12/21 02:11:45;;;;;;;3.88;0.98;;;23.70;99.90;;;;;;5073697;28;20025;-59
2020/12/21 02:14:13;;;;;;;5.95;1.77;;;23.60;99.90;;;;;;5073909;28;20021;-58
2020/12/21 02:16:41;;;;;;;5.75;1.52;;;23.50;99.90;;;;;;5073971;28;20028;-59
2020/12/21 02:19:09;;;;;;;6.20;1.60;;;23.50;99.90;;;;;;5073876;28;20044;-59
2020/12/21 02:21:36;;;;;;;6.72;1.40;;;23.30;99.90;;;;;;5073492;28;20090;-60
2020/12/21 02:24:05;;;;;;;5.60;1.40;;;23.20;99.90;;;;;;5073925;28;20024;-58
2020/12/21 02:26:33;;;;;;;8.48;1.67;;;23.20;99.90;;;;;;5073738;28;20020;-59
2020/12/21 02:29:01;;;;;;;4.93;1.23;;;23.10;99.90;;;;;;5055232;28;20036;-58
2020/12/21 02:31:29;;;;;;;5.15;1.33;;;23.10;99.90;;;;;;5073944;28;20028;-59
2020/12/21 02:33:57;;;;;;;6.22;1.40;;;23.10;99.90;;;;;;5071638;28;20037;-59
2020/12/21 02:36:25;;;;;;;5.22;1.23;;;23.10;99.90;;;;;;5073574;28;20056;-59
2020/12/21 02:38:53;;;;;;;4.25;1.40;;;23.00;99.90;;;;;;5073329;28;20101;-59
2020/12/21 02:41:22;;;;;;;7.43;1.45;;;22.90;99.90;;;;;;5071870;28;20449;-59
2020/12/21 02:43:50;;;;;;;6.55;1.40;;;22.80;99.90;;;;;;5073503;28;20384;-62
2020/12/21 02:46:18;;;;;;;9.05;1.70;;;22.80;99.90;;;;;;5073202;28;20021;-59
2020/12/21 02:48:48;;;;;;;7.78;1.60;;;22.80;99.90;;;;;;5073163;28;20025;-59
2020/12/21 02:51:17;;;;;;;8.05;2.08;;;22.60;99.90;;;;;;5071254;28;20404;-58
2020/12/21 02:53:48;;;;;;;6.05;1.33;;;22.50;99.90;;;;;;5073286;28;20047;-59
2020/12/21 02:56:16;;;;;;;9.05;2.13;;;22.40;99.90;;;;;;5073395;28;20090;-59
2020/12/21 02:58:44;;;;;;;9.05;1.80;;;22.30;99.90;;;;;;5073321;28;20054;-59
2020/12/21 03:01:12;;;;;;;9.82;2.00;;;22.30;99.90;;;;;;5073132;28;20039;-58
2020/12/21 03:03:40;;;;;;;7.20;1.77;;;22.30;99.90;;;;;;5073165;28;20025;-58
2020/12/21 03:06:08;;;;;;;25.17;22.77;;;22.30;99.90;;;;;;5073141;28;20104;-61
2020/12/21 03:08:36;;;;;;;27.77;25.52;;;22.20;99.90;;;;;;5073378;28;20405;-59
2020/12/21 03:11:07;;;;;;;7.20;3.58;;;22.20;99.90;;;;;;5073026;28;20070;-59
2020/12/21 03:13:35;;;;;;;15.45;14.20;;;22.10;99.90;;;;;;5073172;28;20030;-60
2020/12/21 03:16:04;;;;;;;15.55;14.35;;;22.00;99.90;;;;;;5072700;28;20028;-60
2020/12/21 03:18:32;;;;;;;15.95;14.55;;;22.00;99.90;;;;;;5072582;28;20056;-60
2020/12/21 03:21:00;;;;;;;12.02;7.60;;;22.00;99.90;;;;;;5072555;28;20023;-60
2020/12/21 03:23:27;;;;;;;13.00;8.20;;;21.90;99.90;;;;;;5072992;28;20096;-58
2020/12/21 03:25:55;;;;;;;8.02;5.80;;;21.90;99.90;;;;;;5072626;28;20021;-59
2020/12/21 03:28:23;;;;;;;7.78;5.68;;;21.90;99.90;;;;;;5072371;28;20409;-59
2020/12/21 03:30:51;;;;;;;8.95;4.80;;;22.00;99.90;;;;;;5072584;28;20108;-60
2020/12/21 03:33:18;;;;;;;9.18;4.68;;;21.90;99.90;;;;;;5072717;28;20035;-59
2020/12/21 03:35:46;;;;;;;11.32;2.85;;;21.90;99.90;;;;;;5072554;28;20390;-58
2020/12/21 03:38:14;;;;;;;10.57;6.93;;;21.80;99.90;;;;;;5072494;28;20067;-59
2020/12/21 03:40:42;;;;;;;9.07;5.65;;;21.80;99.90;;;;;;5072548;28;20021;-58
2020/12/21 03:43:10;;;;;;;5.22;3.22;;;21.80;99.90;;;;;;5072693;28;20185;-59
2020/12/21 03:45:38;;;;;;;7.60;3.90;;;21.80;99.90;;;;;;5072689;28;20024;-59
2020/12/21 03:48:06;;;;;;;13.35;11.63;;;21.80;99.90;;;;;;5072371;28;20078;-58
2020/12/21 03:50:34;;;;;;;7.82;4.18;;;21.90;99.90;;;;;;5072566;28;20039;-58
2020/12/21 03:53:01;;;;;;;21.20;19.60;;;21.90;99.90;;;;;;5072341;28;20024;-59
2020/12/21 03:55:29;;;;;;;16.42;15.25;;;21.90;99.90;;;;;;5072613;28;20025;-58
2020/12/21 03:57:57;;;;;;;11.32;10.25;;;22.00;99.90;;;;;;5072251;28;20030;-59
2020/12/21 04:00:25;;;;;;;10.68;9.63;;;22.00;99.90;;;;;;5072338;28;20437;-58
2020/12/21 04:02:53;;;;;;;19.85;18.58;;;22.00;99.90;;;;;;5072494;28;20024;-59
2020/12/21 04:05:20;;;;;;;12.27;11.18;;;21.90;99.90;;;;;;5072545;28;20036;-58
2020/12/21 04:07:49;;;;;;;13.18;12.18;;;21.80;99.90;;;;;;5072404;28;20017;-58
2020/12/21 04:10:17;;;;;;;17.00;16.02;;;21.60;99.90;;;;;;5072466;28;20032;-58
2020/12/21 04:12:46;;;;;;;3.00;1.75;;;21.60;99.90;;;;;;5072471;28;20446;-59
2020/12/21 04:15:14;;;;;;;5.55;1.85;;;21.50;99.90;;;;;;5072368;28;20444;-59
2020/12/21 04:17:42;;;;;;;5.93;3.78;;;21.50;99.90;;;;;;5071903;28;20392;-58
2020/12/21 04:20:13;;;;;;;4.97;1.55;;;21.60;99.90;;;;;;5072141;28;20032;-59
2020/12/21 04:22:41;;;;;;;8.82;8.02;;;21.60;99.90;;;;;;5072395;28;20024;-58
2020/12/21 04:25:08;;;;;;;6.63;6.03;;;21.40;99.90;;;;;;5072396;28;20100;-58
2020/12/21 04:27:36;;;;;;;7.53;4.90;;;21.30;99.90;;;;;;5072244;28;20381;-58
2020/12/21 04:30:05;;;;;;;19.92;18.83;;;21.40;99.90;;;;;;5072161;28;20031;-55
2020/12/21 04:32:32;;;;;;;9.93;9.10;;;21.30;99.90;;;;;;5071008;28;20052;-58
2020/12/21 04:35:00;;;;;;;11.90;11.07;;;21.30;99.90;;;;;;5072249;28;20362;-58
2020/12/21 04:37:28;;;;;;;12.85;11.75;;;21.20;99.90;;;;;;5071950;28;20090;-58
2020/12/21 04:39:56;;;;;;;8.85;8.23;;;21.10;99.90;;;;;;5073980;28;20040;-58
2020/12/21 04:42:24;;;;;;;7.55;6.85;;;21.00;99.90;;;;;;5075673;28;20419;-58
2020/12/21 04:44:53;;;;;;;15.98;14.70;;;21.00;99.90;;;;;;5075392;28;20191;-57
2020/12/21 04:47:21;;;;;;;14.50;13.55;;;21.00;99.90;;;;;;5075506;28;20016;-59
2020/12/21 04:49:49;;;;;;;16.95;16.05;;;20.90;99.90;;;;;;5075574;28;20448;-58
2020/12/21 04:52:17;;;;;;;19.80;18.45;;;20.80;99.90;;;;;;5075499;28;20025;-57
2020/12/21 04:54:44;;;;;;;10.15;9.07;;;20.80;99.90;;;;;;5075347;28;20028;-58
2020/12/21 04:57:12;;;;;;;7.82;7.20;;;20.80;99.90;;;;;;5075444;28;20052;-58
2020/12/21 04:59:40;;;;;;;7.25;3.33;;;20.70;99.90;;;;;;5075107;28;20118;-57
2020/12/21 05:02:08;;;;;;;10.05;9.30;;;20.60;99.90;;;;;;5075471;28;20407;-58
2020/12/21 05:04:36;;;;;;;18.83;17.65;;;20.40;99.90;;;;;;5075420;28;20031;-58
2020/12/21 05:07:04;;;;;;;10.45;9.75;;;20.30;99.90;;;;;;5075139;28;20093;-57
2020/12/21 05:09:31;;;;;;;15.10;14.23;;;20.20;99.90;;;;;;5075322;28;20024;-57
2020/12/21 05:12:07;;;;;;;8.73;8.10;;;20.20;99.90;;;;;;5075339;28;20024;-58
2020/12/21 05:14:38;;;;;;;9.02;8.13;;;20.30;99.90;;;;;;5074987;28;20035;-58
2020/12/21 05:17:16;;;;;;;5.43;4.43;;;20.20;99.90;;;;;;5075245;28;20031;-58
2020/12/21 05:19:45;;;;;;;9.13;8.23;;;20.20;99.90;;;;;;5074651;28;20366;-58
2020/12/21 05:22:15;;;;;;;4.07;2.05;;;20.30;99.90;;;;;;5074804;28;20111;-58
2020/12/21 05:24:44;;;;;;;9.15;7.22;;;20.30;99.90;;;;;;5074874;28;20029;-58
2020/12/21 05:27:13;;;;;;;6.65;5.95;;;20.40;99.90;;;;;;5075063;28;20028;-57
2020/12/21 05:29:41;;;;;;;4.03;1.50;;;20.40;99.90;;;;;;5074750;28;20056;-56
2020/12/21 05:32:20;;;;;;;4.28;1.50;;;20.40;99.90;;;;;;5074923;28;20025;-57
2020/12/21 05:34:48;;;;;;;7.90;7.05;;;20.40;99.90;;;;;;5074921;28;20102;-58
2020/12/21 05:37:28;;;;;;;7.95;7.25;;;20.50;99.90;;;;;;5074846;28;20419;-57
2020/12/21 05:39:57;;;;;;;8.52;7.75;;;20.50;99.90;;;;;;5074501;28;20547;-58
2020/12/21 05:42:26;;;;;;;4.68;1.67;;;20.50;99.90;;;;;;5074401;28;20537;-58
2020/12/21 05:44:57;;;;;;;3.95;1.75;;;20.50;99.90;;;;;;5074611;28;20016;-59
2020/12/21 05:47:26;;;;;;;5.40;1.48;;;20.50;99.90;;;;;;5074622;28;20424;-58
2020/12/21 05:50:00;;;;;;;4.32;1.30;;;20.50;99.90;;;;;;5074163;28;20021;-58
2020/12/21 05:52:39;;;;;;;5.03;1.27;;;20.50;99.90;;;;;;5055883;28;20033;-58
2020/12/21 05:55:10;;;;;;;6.32;1.55;;;20.50;99.90;;;;;;5074234;28;20021;-58
2020/12/21 05:57:40;;;;;;;11.45;10.45;;;20.40;99.90;;;;;;5074226;28;20141;-58
2020/12/21 06:00:10;;;;;;;4.13;1.83;;;20.30;99.90;;;;;;5074236;28;20192;-59
2020/12/21 06:02:37;;;;;;;;;;;20.50;99.90;;;;;;5074631;28;20016;-59
2020/12/21 06:05:08;;;;;;;4.68;1.40;;;20.50;99.90;;;;;;5074222;28;20397;-59
2020/12/21 06:07:38;;;;;;;4.07;1.70;;;20.40;99.90;;;;;;5073960;28;20103;-60
2020/12/21 06:10:09;;;;;;;6.43;2.28;;;20.30;99.90;;;;;;5074158;28;20063;-59
2020/12/21 06:12:46;;;;;;;5.13;1.70;;;20.20;99.90;;;;;;5073939;28;20028;-59
2020/12/21 06:15:20;;;;;;;5.10;2.95;;;20.20;99.90;;;;;;5073777;28;20069;-60
2020/12/21 06:17:49;;;;;;;3.95;2.67;;;20.20;99.90;;;;;;5073492;28;20115;-61
2020/12/21 06:20:16;;;;;;;3.10;1.95;;;20.10;99.90;;;;;;5073577;28;20035;-61
2020/12/21 06:22:44;;;;;;;5.53;5.03;;;20.10;99.90;;;;;;5073803;28;20032;-61
2020/12/21 06:25:22;;;;;;;6.78;5.88;;;20.10;99.90;;;;;;5073804;28;20384;-62
2020/12/21 06:27:50;;;;;;;5.90;5.40;;;20.00;99.90;;;;;;5073406;28;20031;-61
2020/12/21 06:30:29;;;;;;;6.38;5.97;;;20.00;99.90;;;;;;5073305;28;20412;-61
2020/12/21 06:33:05;;;;;;;9.27;8.77;;;19.90;99.90;;;;;;5073865;28;20024;-61
2020/12/21 06:35:43;;;;;;;4.03;3.28;;;19.90;99.90;;;;;;5054988;28;20033;-61
2020/12/21 06:38:11;;;;;;;9.00;8.25;;;19.90;99.90;;;;;;5073560;28;20056;-62
2020/12/21 06:40:39;;;;;;;10.75;10.18;;;20.00;99.90;;;;;;5073244;28;20085;-62
2020/12/21 06:43:15;;;;;;;16.27;15.07;;;19.90;99.90;;;;;;5073331;28;20029;-60
2020/12/21 06:45:43;;;;;;;2.75;1.17;;;19.80;99.90;;;;;;5073252;28;20020;-61
2020/12/21 06:48:21;;;;;;;5.25;4.75;;;19.80;99.90;;;;;;5073222;28;20051;-61
2020/12/21 06:50:49;;;;;;;8.23;7.65;;;19.80;99.90;;;;;;5073347;28;20365;-61
2020/12/21 06:53:17;;;;;;;5.45;4.95;;;19.80;99.90;;;;;;5073121;28;20027;-61
2020/12/21 06:55:45;;;;;;;3.03;1.98;;;19.80;99.90;;;;;;5071016;28;20047;-61
2020/12/21 06:58:13;;;;;;;7.78;4.35;;;19.80;99.90;;;;;;5073253;28;20025;-61
2020/12/21 07:00:41;;;;;;;5.43;3.80;;;19.90;99.90;;;;;;5070975;28;20028;-63
2020/12/21 07:03:09;;;;;;;4.78;3.17;;;20.00;99.90;;;;;;5072356;28;20032;-60
2020/12/21 07:05:37;;;;;;;20.73;19.50;;;20.00;99.90;;;;;;5073040;28;20017;-59
2020/12/21 07:08:07;;;;;;;9.13;8.57;;;19.90;99.90;;;;;;5073112;28;20131;-60
2020/12/21 07:10:35;;;;;;;5.97;5.18;;;19.90;99.90;;;;;;5072758;28;20020;-59
2020/12/21 07:13:04;;;;;;;5.70;5.30;;;19.90;99.90;;;;;;5072594;28;20028;-60
2020/12/21 07:15:32;;;;;;;8.45;7.82;;;19.90;99.90;;;;;;5072960;28;20040;-61
2020/12/21 07:18:00;;;;;;;5.15;3.67;;;19.90;99.90;;;;;;5072459;28;20086;-58
2020/12/21 07:20:28;;;;;;;6.90;6.40;;;19.80;99.90;;;;;;5072953;28;20037;-61
2020/12/21 07:23:00;;;;;;;6.28;4.05;;;19.80;99.90;;;;;;5073001;28;20044;-61
2020/12/21 07:25:28;;;;;;;14.00;12.88;;;19.80;99.90;;;;;;5072687;28;20112;-60
2020/12/21 07:27:56;;;;;;;11.20;10.32;;;19.70;99.90;;;;;;5072928;28;20023;-60
2020/12/21 07:30:27;;;;;;;5.15;3.35;;;19.70;99.90;;;;;;5072854;28;20044;-61
2020/12/21 07:32:55;;;;;;;6.30;5.10;;;19.70;99.90;;;;;;5072942;28;20031;-61
2020/12/21 07:35:24;;;;;;;18.23;16.85;;;19.70;99.90;;;;;;5072998;28;20059;-59
2020/12/21 07:37:52;;;;;;;16.50;15.63;;;19.70;99.90;;;;;;5072723;28;20036;-59
2020/12/21 07:40:23;;;;;;;4.65;4.25;;;19.70;99.90;;;;;;5072616;28;20059;-59
2020/12/21 07:42:54;;;;;;;2.75;2.45;;;19.60;99.90;;;;;;5073076;28;20085;-59
2020/12/21 07:45:25;;;;;;;5.97;5.50;;;19.60;99.90;;;;;;5072670;28;20028;-60
2020/12/21 07:47:54;;;;;;;2.58;2.03;;;19.40;99.90;;;;;;5073302;28;20392;-59
2020/12/21 07:50:22;;;;;;;12.38;11.43;;;19.40;99.90;;;;;;5072799;28;20028;-59
2020/12/21 07:52:50;;;;;;;8.18;7.47;;;19.30;99.90;;;;;;5072806;28;20527;-59
2020/12/21 07:55:18;;;;;;;5.78;5.10;;;19.30;99.90;;;;;;5072318;28;20025;-59
2020/12/21 07:57:46;;;;;;;4.45;3.53;;;19.30;99.90;;;;;;5053931;28;20039;-60
2020/12/21 08:00:14;;;;;;;6.10;5.53;;;19.30;99.90;;;;;;5072695;28;20112;-60
2020/12/21 08:02:45;;;;;;;5.18;4.75;;;19.20;99.90;;;;;;5072516;28;20032;-60
2020/12/21 08:05:32;;;;;;;8.90;8.23;;;19.30;99.90;;;;;;5071078;28;20025;-60
2020/12/21 08:08:10;;;;;;;3.85;2.50;;;19.30;99.90;;;;;;5050102;28;20096;-61
2020/12/21 08:10:38;;;;;;;21.33;19.90;;;19.30;99.90;;;;;;5050311;28;20099;-61
2020/12/21 08:13:17;;;;;;;10.10;9.32;;;19.30;99.90;;;;;;5051528;28;20480;-61
2020/12/21 08:15:45;;;;;;;14.93;13.88;;;19.20;99.90;;;;;;5054205;28;20029;-61
2020/12/21 08:18:13;;;;;;;11.23;10.60;;;19.20;99.90;;;;;;5054185;28;20048;-60
2020/12/21 08:20:52;;;;;;;20.08;18.88;;;19.10;99.90;;;;;;5054554;28;20110;-62
2020/12/21 08:23:24;;;;;;;8.80;8.05;;;19.00;99.90;;;;;;5054528;28;20037;-62
2020/12/21 08:25:53;;;;;;;8.73;8.05;;;19.00;99.90;;;;;;5054381;28;20472;-62
2020/12/21 08:28:29;;;;;;;7.28;6.60;;;19.00;99.90;;;;;;5037194;28;20029;-63
2020/12/21 08:31:18;;;;;;;4.82;3.10;;;18.90;99.90;;;;;;5038083;28;20404;-61
2020/12/21 08:34:07;;;;;;;12.88;12.18;;;18.90;99.90;;;;;;5034377;28;20037;-60
2020/12/21 08:36:38;;;;;;;4.65;1.42;;;18.80;99.90;;;;;;4994795;28;20553;-60
2020/12/21 08:39:11;;;;;;;2.60;1.10;;;18.80;99.90;;;;;;4989404;28;20034;-60
2020/12/21 08:41:45;;;;;;;4.10;1.50;;;18.80;99.90;;;;;;5014339;28;20038;-58
2020/12/21 08:44:17;;;;;;;2.03;1.30;;;18.80;99.90;;;;;;5014191;28;20022;-59
2020/12/21 08:46:47;;;;;;;1.88;1.17;;;18.80;99.90;;;;;;5014128;28;20026;-58
2020/12/21 08:49:15;;;;;;;5.00;1.67;;;18.80;99.90;;;;;;5014172;28;20042;-59
2020/12/21 08:51:43;;;;;;;2.38;1.63;;;18.70;99.90;;;;;;5014175;28;20041;-59
2020/12/21 08:54:11;;;;;;;5.15;1.80;;;18.80;99.90;;;;;;4982083;28;20465;-58
2020/12/21 08:56:39;;;;;;;3.58;1.70;;;19.00;99.90;;;;;;4997824;28;20040;-59
2020/12/21 08:59:07;;;;;;;1.95;1.52;;;18.90;99.90;;;;;;5014158;28;20525;-58
2020/12/21 09:01:39;;;;;;;3.25;1.70;;;18.80;99.90;;;;;;5013994;28;20037;-59
2020/12/21 09:04:07;;;;;;;2.42;2.08;;;18.90;99.90;;;;;;5014035;28;20084;-59
2020/12/21 09:06:35;;;;;;;2.33;1.42;;;18.90;99.90;;;;;;4986468;28;20121;-58
2020/12/21 09:09:03;;;;;;;2.65;1.63;;;18.90;99.90;;;;;;5020284;28;20074;-59
2020/12/21 09:11:32;;;;;;;2.35;1.52;;;18.90;99.90;;;;;;5068138;28;20040;-59
2020/12/21 09:14:00;;;;;;;3.53;1.60;;;18.80;99.90;;;;;;5075780;28;20025;-58
2020/12/21 09:16:29;;;;;;;3.35;1.65;;;18.80;99.90;;;;;;5075582;28;20503;-58
2020/12/21 09:18:59;;;;;;;4.15;1.98;;;18.80;99.90;;;;;;5075250;28;20050;-58
2020/12/21 09:21:29;;;;;;;2.30;1.60;;;18.80;99.90;;;;;;5075301;28;20036;-58
2020/12/21 09:23:58;;;;;;;4.80;1.75;;;18.80;99.90;;;;;;5075721;28;20027;-61
2020/12/21 09:26:27;;;;;;;2.70;1.83;;;18.80;99.90;;;;;;5056305;28;20554;-60
2020/12/21 09:28:55;;;;;;;5.45;2.17;;;18.80;99.90;;;;;;5075525;28;20029;-58
2020/12/21 09:31:24;;;;;;;6.13;2.30;;;18.80;99.90;;;;;;5073610;28;20033;-59
2020/12/21 09:33:52;;;;;;;5.10;2.30;;;18.80;99.90;;;;;;5075257;28;20035;-59
2020/12/21 09:36:22;;;;;;;4.35;2.17;;;18.80;99.90;;;;;;5075218;28;20021;-59
2020/12/21 09:38:50;;;;;;;3.22;1.60;;;18.80;99.90;;;;;;5075381;28;20408;-59
2020/12/21 09:41:20;;;;;;;2.63;1.60;;;18.80;99.90;;;;;;5075107;28;20029;-60
2020/12/21 09:43:48;;;;;;;6.22;2.05;;;18.80;99.90;;;;;;5075339;28;20066;-59
2020/12/21 09:46:21;;;;;;;2.47;1.80;;;18.80;99.90;;;;;;5074975;28;20048;-59
2020/12/21 09:48:51;;;;;;;2.22;1.45;;;18.70;99.90;;;;;;5075219;28;20047;-59
2020/12/21 09:51:20;;;;;;;6.60;2.00;;;18.70;99.90;;;;;;5074837;28;20159;-59
2020/12/21 09:53:48;;;;;;;3.90;1.90;;;18.80;99.90;;;;;;5074823;28;20024;-59
2020/12/21 09:56:17;;;;;;;2.85;1.75;;;18.80;99.90;;;;;;5074799;28;20431;-59
2020/12/21 09:58:46;;;;;;;3.95;1.95;;;18.80;99.90;;;;;;5074715;28;20025;-59
2020/12/21 10:01:14;;;;;;;3.70;1.70;;;18.80;99.90;;;;;;5074932;28;20020;-59
2020/12/21 10:03:42;;;;;;;3.60;1.80;;;18.80;99.90;;;;;;5074939;28;20427;-60
2020/12/21 10:06:11;;;;;;;4.35;1.60;;;18.70;99.90;;;;;;5074936;28;20406;-59
2020/12/21 10:08:40;;;;;;;2.88;1.75;;;18.60;99.90;;;;;;5074865;28;20017;-59
2020/12/21 10:11:08;;;;;;;2.78;1.70;;;18.70;99.90;;;;;;5074430;28;20025;-58
2020/12/21 10:13:35;;;;;;;3.42;1.60;;;18.70;99.90;;;;;;5074671;28;20025;-59
2020/12/21 10:16:03;;;;;;;2.25;1.50;;;18.70;99.90;;;;;;5074752;28;20558;-58
2020/12/21 10:18:31;;;;;;;2.35;1.70;;;18.70;99.90;;;;;;5074242;28;20091;-58
2020/12/21 10:20:59;;;;;;;3.65;1.63;;;18.60;99.90;;;;;;5074311;28;20384;-58
2020/12/21 10:23:27;;;;;;;5.97;1.80;;;18.60;99.90;;;;;;5073916;28;20095;-58
2020/12/21 10:25:55;;;;;;;3.28;1.40;;;18.50;99.90;;;;;;5073569;28;20016;-59
2020/12/21 10:28:22;;;;;;;3.90;1.48;;;18.50;99.90;;;;;;5073491;28;20149;-59
2020/12/21 10:30:50;;;;;;;4.18;2.00;;;18.50;99.90;;;;;;5073561;28;20472;-60
2020/12/21 10:33:18;;;;;;;4.30;1.77;;;18.50;99.90;;;;;;5073764;28;20024;-59
2020/12/21 10:35:45;;;;;;;2.47;1.73;;;18.50;99.90;;;;;;5073917;28;20086;-58
2020/12/21 10:38:13;;;;;;;4.47;2.03;;;18.50;99.90;;;;;;5073221;28;20028;-58
2020/12/21 10:40:40;;;;;;;1.90;1.45;;;18.50;99.90;;;;;;5073569;28;20039;-57
2020/12/21 10:43:08;;;;;;;4.55;1.70;;;18.40;99.90;;;;;;5074128;28;20523;-59
2020/12/21 10:45:35;;;;;;;3.47;1.95;;;18.40;99.90;;;;;;5073343;28;20028;-58
2020/12/21 10:48:04;;;;;;;2.35;1.30;;;18.40;99.90;;;;;;5073087;28;20044;-57
2020/12/21 10:50:31;;;;;;;2.22;1.40;;;18.40;99.90;;;;;;5073283;28;20031;-57
2020/12/21 10:52:59;;;;;;;2.92;1.75;;;18.40;99.90;;;;;;5073267;28;20021;-58
2020/12/21 10:55:26;;;;;;;2.80;1.90;;;18.50;99.90;;;;;;5072028;28;20068;-58
2020/12/21 10:57:54;;;;;;;3.50;1.88;;;18.40;99.90;;;;;;5073058;28;20020;-58
2020/12/21 11:00:24;;;;;;;2.50;1.63;;;18.50;99.90;;;;;;5072881;28;20108;-58
2020/12/21 11:02:52;;;;;;;3.95;1.73;;;18.50;99.90;;;;;;5073216;28;20029;-58
2020/12/21 11:05:21;;;;;;;4.13;1.70;;;18.50;99.90;;;;;;5073301;28;20027;-58
2020/12/21 11:07:48;;;;;;;3.30;2.03;;;18.50;99.90;;;;;;5072998;28;20377;-58
2020/12/21 11:10:21;;;;;;;3.80;1.95;;;18.50;99.90;;;;;;5073294;28;20025;-58
2020/12/21 11:12:49;;;;;;;3.50;1.80;;;18.40;99.90;;;;;;5073212;28;20032;-58
2020/12/21 11:15:17;;;;;;;2.63;1.90;;;18.50;99.90;;;;;;5073059;28;20035;-58
2020/12/21 11:17:45;;;;;;;2.85;1.60;;;18.50;99.90;;;;;;5054090;28;20112;-58
2020/12/21 11:20:13;;;;;;;2.22;1.70;;;18.50;99.90;;;;;;5072751;28;20039;-58
2020/12/21 11:22:43;;;;;;;3.58;2.05;;;18.50;99.90;;;;;;5072581;28;20111;-57
2020/12/21 11:25:12;;;;;;;3.13;1.85;;;18.50;99.90;;;;;;5073119;28;20482;-58
2020/12/21 11:27:40;;;;;;;2.78;1.80;;;18.50;99.90;;;;;;5073494;28;20025;-58
2020/12/21 11:30:08;;;;;;;3.58;2.10;;;18.50;99.90;;;;;;5073463;28;20492;-58
2020/12/21 11:32:37;;;;;;;4.88;2.08;;;18.50;99.90;;;;;;5073196;28;20037;-59
2020/12/21 11:35:05;;;;;;;3.65;2.45;;;18.50;99.90;;;;;;5073203;28;20024;-58
2020/12/21 11:37:33;;;;;;;4.35;2.33;;;18.50;99.90;;;;;;5073419;28;20032;-58
2020/12/21 11:40:02;;;;;;;3.85;2.20;;;18.50;99.90;;;;;;5054655;28;20401;-58
2020/12/21 11:42:30;;;;;;;3.20;2.08;;;18.50;99.90;;;;;;5071279;28;20082;-58
2020/12/21 11:44:58;;;;;;;4.55;2.45;;;18.50;99.90;;;;;;5054759;28;20032;-58
2020/12/21 11:47:26;;;;;;;3.55;2.70;;;18.50;99.90;;;;;;5073153;28;20044;-58
2020/12/21 11:49:54;;;;;;;3.78;2.72;;;18.60;99.90;;;;;;5076780;28;20024;-58
2020/12/21 11:52:22;;;;;;;4.93;2.50;;;18.60;99.90;;;;;;5076976;28;20028;-58
2020/12/21 11:54:49;;;;;;;3.03;2.17;;;18.60;99.90;;;;;;5076904;28;20448;-58
2020/12/21 11:57:17;;;;;;;3.40;2.40;;;18.60;99.90;;;;;;5076855;28;20025;-58
2020/12/21 11:59:45;;;;;;;5.20;2.58;;;18.50;99.90;;;;;;5077267;28;20024;-56
2020/12/21 12:02:13;;;;;;;4.32;2.53;;;18.60;99.90;;;;;;5077301;28;20149;-58
2020/12/21 12:04:41;;;;;;;4.55;2.88;;;18.60;99.90;;;;;;5075217;28;20488;-58
2020/12/21 12:07:08;;;;;;;5.00;2.67;;;18.60;99.90;;;;;;5076887;28;20020;-58
2020/12/21 12:09:36;;;;;;;4.65;2.47;;;18.60;99.90;;;;;;5077111;28;20049;-58
2020/12/21 12:12:04;;;;;;;3.15;2.70;;;18.60;99.90;;;;;;5076989;28;20036;-58
2020/12/21 12:14:32;;;;;;;4.57;2.85;;;18.60;99.90;;;;;;5076860;28;20384;-59
2020/12/21 12:17:00;;;;;;;5.07;2.83;;;18.50;99.90;;;;;;5076784;28;20469;-58
2020/12/21 12:19:28;;;;;;;4.78;3.13;;;18.60;99.90;;;;;;5076111;28;20439;-58
2020/12/21 12:21:57;;;;;;;3.97;3.25;;;18.60;99.90;;;;;;5076268;28;20024;-58
2020/12/21 12:24:25;;;;;;;4.57;2.92;;;18.50;99.90;;;;;;5076498;28;20027;-58
2020/12/21 12:26:53;;;;;;;7.45;2.80;;;18.50;99.90;;;;;;5076087;28;20029;-58
2020/12/21 12:29:22;;;;;;;4.30;2.50;;;18.50;99.90;;;;;;5076383;28;20349;-58
2020/12/21 12:31:49;;;;;;;3.80;2.85;;;18.50;99.90;;;;;;5075070;28;20032;-58
2020/12/21 12:34:17;;;;;;;5.10;2.88;;;18.50;99.90;;;;;;5076600;28;20028;-58
2020/12/21 12:36:46;;;;;;;9.57;3.45;;;18.50;99.90;;;;;;5076090;28;20032;-59
2020/12/21 12:39:14;;;;;;;9.30;3.20;;;18.50;99.90;;;;;;5076077;28;20077;-58
2020/12/21 12:41:43;;;;;;;5.18;2.80;;;18.50;99.90;;;;;;5075871;28;20035;-58
2020/12/21 12:44:11;;;;;;;4.82;3.10;;;18.50;99.90;;;;;;5075777;28;20048;-59
2020/12/21 12:46:39;;;;;;;3.83;2.67;;;18.50;99.90;;;;;;5075926;28;20035;-59
2020/12/21 12:49:09;;;;;;;3.70;2.65;;;18.50;99.90;;;;;;5057577;28;20031;-58
2020/12/21 12:51:39;;;;;;;6.45;3.30;;;18.50;99.90;;;;;;5075713;28;20056;-58
2020/12/21 12:54:07;;;;;;;4.72;3.47;;;18.50;99.90;;;;;;5076006;28;20024;-59